createdAt,value
2022-11-17T00:00:44.610Z,97559.56
2022-11-17T00:03:15.881Z,97617.34
2022-11-17T00:05:47.294Z,97527.00
2022-11-17T00:08:16.275Z,97549.16
2022-11-17T00:10:44.524Z,97581.97
2022-11-17T00:13:32.790Z,97580.13
2022-11-17T00:16:01.132Z,97576.22
2022-11-17T00:18:47.291Z,97555.41
2022-11-17T00:21:21.807Z,97590.19
2022-11-17T00:23:50.932Z,97554.91
2022-11-17T00:26:22.073Z,97578.78
2022-11-17T00:28:57.899Z,97565.88
2022-11-17T00:31:45.354Z,97501.19
2022-11-17T00:34:17.685Z,97558.31
2022-11-17T00:36:48.132Z,97537.03
2022-11-17T00:39:18.033Z,97518.69
2022-11-17T00:41:46.569Z,97518.31
2022-11-17T00:44:35.461Z,97509.78
2022-11-17T00:47:11.997Z,97571.22
2022-11-17T00:49:40.750Z,97533.91
2022-11-17T01:00:21.780Z,97541.09
2022-11-17T01:03:17.851Z,97520.09
2022-11-17T01:06:09.614Z,97517.13
2022-11-17T01:08:51.256Z,97561.09
2022-11-17T01:11:28.403Z,97492.16
2022-11-17T01:14:51.124Z,97564.22
2022-11-17T01:17:52.853Z,97497.19
2022-11-17T01:20:30.118Z,97543.97
2022-11-17T01:23:04.853Z,97546.63
2022-11-17T01:25:43.985Z,97526.47
2022-11-17T01:28:41.888Z,97479.63
2022-11-17T01:31:18.229Z,97448.94
2022-11-17T01:34:11.347Z,97464.66
2022-11-17T01:37:08.861Z,97482.28
2022-11-17T01:39:44.556Z,97420.38
2022-11-17T01:42:37.069Z,97431.81
2022-11-17T01:45:07.496Z,97432.88
2022-11-17T01:47:52.722Z,97423.13
2022-11-17T01:50:39.357Z,97484.16
2022-11-17T01:53:40.502Z,97417.44
2022-11-17T01:56:30.603Z,97417.25
2022-11-17T01:59:12.866Z,97452.88
2022-11-17T02:01:57.495Z,97407.03
2022-11-17T02:04:36.658Z,97433.13
2022-11-17T02:07:29.057Z,97400.84
2022-11-17T02:10:00.453Z,97392.09
2022-11-17T02:12:40.738Z,97444.78
2022-11-17T02:15:36.105Z,97435.75
2022-11-17T04:08:04.302Z,97384.81
2022-11-17T04:10:52.786Z,97374.00
2022-11-17T04:13:38.572Z,97412.16
2022-11-17T04:16:06.545Z,97406.63
2022-11-17T04:18:39.644Z,97383.84
2022-11-17T04:21:13.455Z,97384.44
2022-11-17T04:23:43.444Z,97340.56
2022-11-17T04:26:29.848Z,97358.28
2022-11-17T04:28:57.947Z,97404.59
2022-11-17T04:31:28.013Z,97423.28
2022-11-17T04:33:59.618Z,97347.84
2022-11-17T04:36:29.666Z,97357.28
2022-11-17T04:39:09.931Z,97425.53
2022-11-17T04:42:02.490Z,97377.81
2022-11-17T04:44:33.063Z,97402.69
2022-11-17T04:47:12.246Z,97361.00
2022-11-17T04:49:44.724Z,97414.88
2022-11-17T04:52:17.823Z,97378.31
2022-11-17T04:54:50.813Z,97418.31
2022-11-17T04:57:19.467Z,97405.81
2022-11-17T04:59:47.673Z,97444.38
2022-11-17T05:02:18.235Z,97392.63
2022-11-17T05:04:58.822Z,97399.63
2022-11-17T05:07:29.467Z,97365.50
2022-11-17T05:09:59.652Z,97415.22
2022-11-17T05:12:45.664Z,97414.22
2022-11-17T05:15:39.233Z,97456.84
2022-11-17T05:18:11.544Z,97424.75
2022-11-17T05:20:46.895Z,97437.84
2022-11-17T05:23:32.547Z,97469.31
2022-11-17T05:26:02.550Z,97460.28
2022-11-17T05:28:35.058Z,97454.72
2022-11-17T05:31:03.789Z,97461.03
2022-11-17T05:33:37.882Z,97411.53
2022-11-17T05:36:07.335Z,97420.84
2022-11-17T05:38:41.206Z,97448.78
2022-11-17T05:41:11.194Z,97447.56
2022-11-17T05:43:44.680Z,97450.50
2022-11-17T05:46:15.314Z,97463.47
2022-11-17T05:48:48.462Z,97467.44
2022-11-17T05:51:17.168Z,97451.28
2022-11-17T05:53:48.407Z,97453.81
2022-11-17T05:56:46.522Z,97437.06
2022-11-17T06:05:15.670Z,97475.31
2022-11-17T06:07:48.679Z,97470.88
2022-11-17T06:10:19.943Z,97471.50
2022-11-17T06:12:52.417Z,97479.94
2022-11-17T06:15:27.556Z,97456.41
2022-11-17T06:20:52.299Z,97493.56
2022-11-17T06:23:33.494Z,97472.97
2022-11-17T06:26:06.589Z,97529.19
2022-11-17T06:28:41.551Z,97494.25
2022-11-17T06:31:13.973Z,97508.13
2022-11-17T06:33:47.696Z,97509.19
2022-11-17T06:36:21.294Z,97516.50
2022-11-17T06:38:51.665Z,97542.78
2022-11-17T06:41:20.558Z,97510.25
2022-11-17T06:43:52.064Z,97542.38
2022-11-17T06:46:21.389Z,97545.44
2022-11-17T06:48:54.559Z,97540.88
2022-11-17T06:51:26.044Z,97535.03
2022-11-17T06:53:54.587Z,97495.19
2022-11-17T06:56:24.196Z,97563.03
2022-11-17T06:59:02.243Z,97535.63
2022-11-17T07:01:30.886Z,97521.56
2022-11-17T07:04:00.322Z,97514.81
2022-11-17T07:06:29.034Z,97585.94
2022-11-17T07:08:57.806Z,97570.22
2022-11-17T07:14:42.026Z,97555.22
2022-11-17T07:17:20.521Z,97560.78
2022-11-17T07:19:53.705Z,97548.22
2022-11-17T07:22:31.993Z,97580.41
2022-11-17T07:24:59.955Z,97585.84
2022-11-17T07:27:31.379Z,97537.16
2022-11-17T07:30:07.722Z,97595.16
2022-11-17T07:49:21.008Z,97646.31
2022-11-17T07:52:04.627Z,97582.66
2022-11-17T07:54:35.733Z,97582.09
2022-11-17T07:57:05.027Z,97612.41
2022-11-17T07:59:36.202Z,97582.44
2022-11-17T08:02:39.361Z,97610.19
2022-11-17T08:05:18.267Z,97658.00
2022-11-17T08:07:57.081Z,97638.09
2022-11-17T08:10:33.616Z,97624.34
2022-11-17T08:21:34.058Z,97633.97
2022-11-17T08:24:06.967Z,97701.59
2022-11-17T08:26:41.889Z,97638.69
2022-11-17T08:29:17.226Z,97668.84
2022-11-17T08:31:47.995Z,97669.28
2022-11-17T08:34:20.124Z,97704.56
2022-11-17T08:36:51.482Z,97660.13
2022-11-17T08:39:23.310Z,97725.59
2022-11-17T08:41:54.470Z,97714.19
2022-11-17T08:44:22.914Z,97694.31
2022-11-17T08:46:51.573Z,97738.81
2022-11-17T08:49:20.881Z,97715.53
2022-11-17T08:51:48.987Z,97689.78
2022-11-17T08:54:18.167Z,97713.53
2022-11-17T08:56:46.662Z,97718.28
2022-11-17T08:59:15.589Z,97718.28
2022-11-17T09:01:43.989Z,97735.97
2022-11-17T09:04:12.019Z,97734.22
2022-11-17T09:06:43.037Z,97773.94
2022-11-17T09:09:11.531Z,97749.69
2022-11-17T09:11:39.514Z,97773.69
2022-11-17T09:14:08.398Z,97773.53
2022-11-17T09:16:36.750Z,97767.19
2022-11-17T09:19:04.702Z,97754.13
2022-11-17T09:21:33.892Z,97740.06
2022-11-17T09:24:03.667Z,97727.22
2022-11-17T09:26:31.674Z,97755.13
2022-11-17T09:29:02.321Z,97784.13
2022-11-17T09:31:31.524Z,97793.09
2022-11-17T09:34:03.807Z,97782.31
2022-11-17T09:36:33.104Z,97796.38
2022-11-17T09:39:01.219Z,97781.38
2022-11-17T09:41:35.692Z,97800.16
2022-11-17T09:44:16.909Z,97804.22
2022-11-17T09:47:02.009Z,97816.16
2022-11-17T09:49:41.896Z,97824.31
2022-11-17T09:52:17.054Z,97787.91
2022-11-17T09:54:50.906Z,97818.94
2022-11-17T09:57:30.300Z,97808.97
2022-11-17T10:00:06.223Z,97852.22
2022-11-17T10:02:34.365Z,97829.09
2022-11-17T10:05:02.529Z,97849.97
2022-11-17T10:07:33.343Z,97851.06
2022-11-17T10:10:03.502Z,97813.91
2022-11-17T10:12:40.301Z,97864.25
2022-11-17T10:15:22.610Z,97879.09
2022-11-17T10:17:55.847Z,97823.75
2022-11-17T10:20:24.265Z,97860.78
2022-11-17T10:22:55.065Z,97878.16
2022-11-17T10:25:38.382Z,97893.66
2022-11-17T10:28:10.383Z,97895.25
2022-11-17T10:30:38.579Z,97873.63
2022-11-17T10:33:06.375Z,97908.00
2022-11-17T10:35:36.289Z,97906.41
2022-11-17T10:38:07.158Z,97882.94
2022-11-17T10:40:49.914Z,97877.97
2022-11-17T10:43:24.772Z,97884.72
2022-11-17T10:45:55.687Z,97898.06
2022-11-17T10:48:28.946Z,97871.09
2022-11-17T10:50:58.677Z,97895.13
2022-11-17T10:53:43.039Z,97838.44
2022-11-17T10:56:15.726Z,97853.22
2022-11-17T10:59:15.502Z,97879.97
2022-11-17T11:01:45.560Z,97900.44
2022-11-17T11:04:30.276Z,97894.38
2022-11-17T11:07:13.186Z,97881.41
2022-11-17T11:09:51.310Z,97892.75
2022-11-17T11:12:26.124Z,97873.69
2022-11-17T11:14:58.758Z,97890.28
2022-11-17T11:17:29.197Z,97853.41
2022-11-17T11:19:58.013Z,97904.28
2022-11-17T11:22:36.626Z,97866.56
2022-11-17T11:25:15.856Z,97901.69
2022-11-17T11:27:57.803Z,97893.88
2022-11-17T11:30:28.336Z,97898.28
2022-11-17T11:33:08.207Z,97900.53
2022-11-17T11:35:56.315Z,97904.16
2022-11-17T11:38:45.043Z,97907.00
2022-11-17T11:41:24.570Z,97898.84
2022-11-17T11:44:07.568Z,97898.78
2022-11-17T11:46:47.382Z,97923.63
2022-11-17T11:49:24.047Z,97920.97
2022-11-17T11:51:56.794Z,97919.88
2022-11-17T11:54:33.923Z,97925.69
2022-11-17T11:57:02.181Z,97915.66
2022-11-17T11:59:42.131Z,97920.91
2022-11-17T12:02:26.703Z,97927.78
2022-11-17T12:05:05.669Z,97941.84
2022-11-17T12:07:41.676Z,97942.16
2022-11-17T12:10:18.994Z,97935.34
2022-11-17T12:12:48.285Z,97940.53
2022-11-17T12:15:37.088Z,97944.28
2022-11-17T12:18:13.188Z,97923.69
2022-11-17T12:20:55.406Z,97956.94
2022-11-17T12:23:50.662Z,97948.97
2022-11-17T12:26:25.178Z,97959.03
2022-11-17T12:29:29.277Z,97957.50
2022-11-17T12:31:59.115Z,97952.13
2022-11-17T12:34:31.696Z,97938.41
2022-11-17T12:37:23.295Z,97958.75
2022-11-17T12:40:06.690Z,97950.72
2022-11-17T12:42:36.534Z,97953.66
2022-11-17T12:45:07.508Z,97966.38
2022-11-17T12:47:37.605Z,97935.75
2022-11-17T12:50:27.721Z,97954.47
2022-11-17T12:53:07.671Z,97963.16
2022-11-17T12:55:49.203Z,97942.53
2022-11-17T12:58:24.675Z,97945.19
2022-11-17T13:01:02.997Z,97965.75
2022-11-17T13:03:44.103Z,97960.56
2022-11-17T13:09:07.751Z,97967.69
2022-11-17T13:11:36.249Z,97964.28
2022-11-17T13:14:12.402Z,97943.50
2022-11-17T13:16:46.176Z,97955.75
2022-11-17T13:19:34.126Z,97983.81
2022-11-17T13:22:07.595Z,97965.09
2022-11-17T13:24:38.528Z,97945.84
2022-11-17T13:27:08.808Z,98001.25
2022-11-17T13:29:41.169Z,97994.84
2022-11-17T13:32:14.868Z,97953.66
2022-11-17T13:34:51.909Z,97961.56
2022-11-17T13:37:24.108Z,98014.91
2022-11-17T13:40:01.146Z,98004.03
2022-11-17T13:42:33.055Z,97966.53
2022-11-17T13:45:07.851Z,97977.59
2022-11-17T13:47:45.812Z,97965.50
2022-11-17T13:50:37.301Z,97979.59
2022-11-17T13:53:27.197Z,97970.53
2022-11-17T13:55:55.161Z,98001.75
2022-11-17T13:58:30.766Z,98014.97
2022-11-17T14:01:00.118Z,97974.88
2022-11-17T14:03:39.917Z,98009.59
2022-11-17T14:06:10.141Z,97951.56
2022-11-17T14:08:41.801Z,97990.09
2022-11-17T14:11:21.489Z,98010.59
2022-11-17T14:13:52.929Z,97966.59
2022-11-17T14:16:25.152Z,97968.00
2022-11-17T14:19:02.999Z,97978.25
2022-11-17T14:21:32.311Z,97995.34
2022-11-17T14:24:08.312Z,98023.31
2022-11-17T14:26:36.378Z,98020.66
2022-11-17T14:29:04.281Z,97982.25
2022-11-17T14:31:34.390Z,98025.41
2022-11-17T14:34:02.591Z,98004.91
2022-11-17T14:36:33.094Z,97966.66
2022-11-17T14:39:02.281Z,97990.09
2022-11-17T14:41:32.628Z,98032.28
2022-11-17T14:44:00.727Z,98006.69
2022-11-17T14:46:28.881Z,98040.34
2022-11-17T14:48:57.203Z,98003.31
2022-11-17T14:51:25.705Z,98011.06
2022-11-17T14:53:54.256Z,98018.47
2022-11-17T14:56:24.548Z,98052.84
2022-11-17T14:58:57.237Z,98020.34
2022-11-17T15:01:29.177Z,98033.56
2022-11-17T15:03:58.621Z,97989.06
2022-11-17T15:06:29.627Z,98052.53
2022-11-17T15:08:59.927Z,98063.19
2022-11-17T15:11:31.928Z,98037.38
2022-11-17T15:14:05.351Z,98059.31
2022-11-17T15:16:34.245Z,98065.06
2022-11-17T15:19:03.922Z,98059.59
2022-11-17T15:21:32.003Z,98062.25
2022-11-17T15:24:00.247Z,98065.97
2022-11-17T15:26:28.690Z,98058.34
2022-11-17T15:28:57.948Z,98071.22
2022-11-17T15:31:27.722Z,98039.84
2022-11-17T15:33:56.087Z,98083.00
2022-11-17T15:36:24.760Z,98064.22
2022-11-17T15:38:53.439Z,98090.97
2022-11-17T15:41:21.822Z,98090.97
2022-11-17T15:43:49.922Z,98072.75
2022-11-17T15:46:20.116Z,98092.59
2022-11-17T15:48:52.540Z,98074.69
2022-11-17T15:51:22.681Z,98087.63
2022-11-17T15:53:52.514Z,98058.97
2022-11-17T15:56:22.032Z,98099.34
2022-11-17T15:58:55.922Z,98092.25
2022-11-17T16:06:50.009Z,98051.97
2022-11-17T16:12:51.383Z,98097.50
2022-11-17T16:15:32.289Z,98105.38
2022-11-17T16:18:00.680Z,98045.72
2022-11-17T17:49:36.274Z,98152.94
2022-11-17T17:52:08.492Z,98176.22
2022-11-17T17:54:41.319Z,98199.22
2022-11-17T17:57:12.742Z,98167.31
2022-11-17T17:59:41.351Z,98142.47
2022-11-17T18:02:15.370Z,98189.00
2022-11-17T18:04:45.310Z,98153.34
2022-11-17T18:07:19.838Z,98183.47
2022-11-17T18:09:48.452Z,98189.06
2022-11-17T18:12:17.715Z,98235.91
2022-11-17T18:14:47.251Z,98151.56
2022-11-17T18:17:19.046Z,98185.41
2022-11-17T18:19:54.321Z,98180.13
2022-11-17T18:22:22.867Z,98226.69
2022-11-17T18:24:58.393Z,98180.16
2022-11-17T18:27:27.398Z,98208.47
2022-11-17T18:29:55.981Z,98231.22
2022-11-17T18:32:24.492Z,98227.78
2022-11-17T18:34:54.619Z,98239.47
2022-11-17T18:37:22.773Z,98184.97
2022-11-17T18:39:51.350Z,98205.06
2022-11-17T18:42:19.879Z,98194.25
2022-11-17T18:44:49.801Z,98190.03
2022-11-17T18:47:20.449Z,98233.16
2022-11-17T18:49:52.688Z,98226.81
2022-11-17T18:52:24.883Z,98226.81
2022-11-17T21:29:36.603Z,98355.97
2022-11-17T21:32:08.010Z,98320.44
2022-11-17T21:34:38.733Z,98361.53
2022-11-17T21:37:12.316Z,98360.19
